createdAt,value
2019-03-27T00:00:04.420Z,95.90
2019-03-27T00:02:35.330Z,96.20
2019-03-27T00:05:06.350Z,96.20
2019-03-27T00:07:37.093Z,96.30
2019-03-27T00:10:08.983Z,96.10
2019-03-27T00:12:39.767Z,96.40
2019-03-27T00:15:13.656Z,96.70
2019-03-27T00:17:44.147Z,97.00
2019-03-27T00:20:15.269Z,97.10
2019-03-27T00:22:46.105Z,97.50
2019-03-27T00:25:16.970Z,97.60
2019-03-27T00:27:47.663Z,97.80
2019-03-27T00:30:19.660Z,98.00
2019-03-27T00:32:50.407Z,98.20
2019-03-27T00:35:21.206Z,98.80
2019-03-27T00:37:51.921Z,99.30
2019-03-27T00:40:22.694Z,99.50
2019-03-27T00:42:53.405Z,99.40
2019-03-27T00:45:26.720Z,99.90
2019-03-27T00:47:56.338Z,99.90
2019-03-27T00:50:27.049Z,99.90
2019-03-27T00:52:57.656Z,99.90
2019-03-27T00:55:28.346Z,99.90
2019-03-27T00:57:59.074Z,99.90
2019-03-27T01:00:35.401Z,99.90
2019-03-27T01:03:06.111Z,99.90
2019-03-27T01:05:36.850Z,99.90
2019-03-27T01:08:07.641Z,99.90
2019-03-27T01:10:38.433Z,99.90
2019-03-27T01:13:09.138Z,99.90
2019-03-27T01:15:40.387Z,99.90
2019-03-27T01:18:11.219Z,99.90
2019-03-27T01:20:41.954Z,99.90
2019-03-27T01:23:12.773Z,99.90
2019-03-27T01:25:43.538Z,99.90
2019-03-27T01:28:14.588Z,99.90
2019-03-27T01:30:45.253Z,99.90
2019-03-27T01:33:15.951Z,99.90
2019-03-27T01:35:46.669Z,99.90
2019-03-27T01:38:17.351Z,99.90
2019-03-27T01:40:48.034Z,99.90
2019-03-27T01:43:18.677Z,99.90
2019-03-27T01:45:53.166Z,99.90
2019-03-27T01:48:21.954Z,99.90
2019-03-27T01:50:52.838Z,99.90
2019-03-27T01:53:23.549Z,99.90
2019-03-27T01:55:54.391Z,99.90
2019-03-27T01:58:25.156Z,99.90
2019-03-27T02:00:55.931Z,99.90
2019-03-27T02:03:26.675Z,99.90
2019-03-27T02:05:57.491Z,99.90
2019-03-27T02:08:28.367Z,99.90
2019-03-27T02:10:59.078Z,99.90
2019-03-27T02:13:29.884Z,99.90
2019-03-27T02:16:06.722Z,99.90
2019-03-27T02:18:32.996Z,99.90
2019-03-27T02:21:03.899Z,99.90
2019-03-27T02:23:34.762Z,99.90
2019-03-27T02:26:05.606Z,99.90
2019-03-27T02:28:36.380Z,99.90
2019-03-27T02:31:07.202Z,99.90
2019-03-27T02:33:37.998Z,99.90
2019-03-27T02:36:08.784Z,99.90
2019-03-27T02:38:39.622Z,99.90
2019-03-27T02:41:10.400Z,99.90
2019-03-27T02:43:41.171Z,99.90
2019-03-27T02:46:24.352Z,99.90
2019-03-27T02:48:44.171Z,99.90
2019-03-27T02:51:15.072Z,99.90
2019-03-27T02:53:45.895Z,99.90
2019-03-27T02:56:16.750Z,99.90
2019-03-27T02:58:47.549Z,99.90
2019-03-27T03:01:18.266Z,99.90
2019-03-27T03:03:49.073Z,99.90
2019-03-27T03:06:19.727Z,99.90
2019-03-27T03:08:50.354Z,99.90
2019-03-27T03:11:20.989Z,99.90
2019-03-27T03:13:51.703Z,99.90
2019-03-27T03:16:22.450Z,99.90
2019-03-27T03:18:53.237Z,99.90
2019-03-27T03:21:24.137Z,99.90
2019-03-27T03:23:54.750Z,99.90
2019-03-27T03:26:25.703Z,99.90
2019-03-27T03:28:56.356Z,99.90
2019-03-27T03:31:27.073Z,99.90
2019-03-27T03:33:57.968Z,99.90
2019-03-27T03:36:28.840Z,99.90
2019-03-27T03:38:59.614Z,99.90
2019-03-27T03:41:30.463Z,99.90
2019-03-27T03:44:01.239Z,99.90
2019-03-27T03:46:31.963Z,99.90
2019-03-27T03:49:04.733Z,99.90
2019-03-27T03:51:38.974Z,99.90
2019-03-27T03:54:10.447Z,99.90
2019-03-27T03:56:43.028Z,99.90
2019-03-27T03:59:15.650Z,99.90
2019-03-27T04:01:50.443Z,99.90
2019-03-27T04:04:23.285Z,99.90
2019-03-27T04:06:54.015Z,99.90
2019-03-27T04:09:24.756Z,99.90
2019-03-27T04:11:55.623Z,99.90
2019-03-27T04:14:26.430Z,99.90
2019-03-27T04:17:15.512Z,99.90
2019-03-27T04:19:30.441Z,99.90
2019-03-27T04:22:01.291Z,99.90
2019-03-27T04:24:32.020Z,99.90
2019-03-27T04:27:02.681Z,99.90
2019-03-27T04:29:33.476Z,99.90
2019-03-27T04:32:04.246Z,99.90
2019-03-27T04:34:35.166Z,99.90
2019-03-27T04:37:05.979Z,99.90
2019-03-27T04:39:36.714Z,99.90
2019-03-27T04:42:07.499Z,99.90
2019-03-27T04:44:38.285Z,99.90
2019-03-27T04:47:09.003Z,99.90
2019-03-27T04:49:39.801Z,99.90
2019-03-27T04:52:10.598Z,99.90
2019-03-27T04:54:41.214Z,99.90
2019-03-27T04:57:12.022Z,99.90
2019-03-27T04:59:42.717Z,99.90
2019-03-27T05:02:13.318Z,99.90
2019-03-27T05:04:44.229Z,99.90
2019-03-27T05:07:15.042Z,99.90
2019-03-27T05:09:45.778Z,99.90
2019-03-27T05:12:16.625Z,99.90
2019-03-27T05:14:47.386Z,99.90
2019-03-27T05:17:18.227Z,99.90
2019-03-27T05:19:49.030Z,99.90
2019-03-27T05:22:19.794Z,99.90
2019-03-27T05:24:50.642Z,99.90
2019-03-27T05:27:21.417Z,99.90
2019-03-27T05:29:52.082Z,99.90
2019-03-27T05:32:22.711Z,99.90
2019-03-27T05:34:53.442Z,99.90
2019-03-27T05:37:24.349Z,99.90
2019-03-27T05:39:55.185Z,99.90
2019-03-27T05:42:25.928Z,99.90
2019-03-27T05:44:56.705Z,99.90
2019-03-27T05:47:27.438Z,99.90
2019-03-27T05:49:58.240Z,99.90
2019-03-27T05:52:29.029Z,99.90
2019-03-27T05:54:59.773Z,99.90
2019-03-27T05:57:30.868Z,99.90
2019-03-27T06:00:01.676Z,99.90
2019-03-27T06:02:32.345Z,99.90
2019-03-27T06:05:04.091Z,99.90
2019-03-27T06:07:34.931Z,99.90
2019-03-27T06:10:05.970Z,99.90
2019-03-27T06:12:36.812Z,99.90
2019-03-27T06:15:13.155Z,99.90
2019-03-27T06:17:43.946Z,99.90
2019-03-27T06:20:14.662Z,99.90
2019-03-27T06:22:45.292Z,99.90
2019-03-27T06:25:16.052Z,99.90
2019-03-27T06:27:46.850Z,99.90
2019-03-27T06:30:17.475Z,99.90
2019-03-27T06:32:48.167Z,99.90
2019-03-27T06:35:20.303Z,99.90
2019-03-27T06:37:51.317Z,99.90
2019-03-27T06:40:22.082Z,99.90
2019-03-27T06:42:52.901Z,99.90
2019-03-27T06:45:23.688Z,99.90
2019-03-27T06:47:54.354Z,99.90
2019-03-27T06:50:25.096Z,99.90
2019-03-27T06:52:55.859Z,99.90
2019-03-27T06:55:26.669Z,99.90
2019-03-27T06:57:57.498Z,99.90
2019-03-27T07:00:38.666Z,99.90
2019-03-27T07:03:09.498Z,99.90
2019-03-27T07:05:40.233Z,99.90
2019-03-27T07:08:10.945Z,99.90
2019-03-27T07:10:50.936Z,99.90
2019-03-27T07:13:22.173Z,99.90
2019-03-27T07:15:52.798Z,99.90
2019-03-27T07:18:23.528Z,99.90
2019-03-27T07:20:54.909Z,99.90
2019-03-27T07:23:25.710Z,99.90
2019-03-27T07:25:56.455Z,99.90
2019-03-27T07:28:27.246Z,99.90
2019-03-27T07:30:58.126Z,99.90
2019-03-27T07:33:29.080Z,99.90
2019-03-27T07:36:00.705Z,99.90
2019-03-27T07:38:32.591Z,99.90
2019-03-27T07:41:03.439Z,99.90
2019-03-27T07:43:34.883Z,99.90
2019-03-27T07:46:07.381Z,99.90
2019-03-27T07:48:38.160Z,99.90
2019-03-27T07:51:08.893Z,99.90
2019-03-27T07:53:39.670Z,99.90
2019-03-27T07:56:10.463Z,99.90
2019-03-27T07:58:41.097Z,99.90
2019-03-27T08:01:11.877Z,99.90
2019-03-27T08:03:42.664Z,99.90
2019-03-27T08:06:13.406Z,99.90
2019-03-27T08:08:44.174Z,99.90
2019-03-27T08:11:14.992Z,99.90
2019-03-27T08:13:45.683Z,99.90
2019-03-27T08:16:16.404Z,99.90
2019-03-27T08:18:47.198Z,99.90
2019-03-27T08:21:18.053Z,99.90
2019-03-27T08:23:48.862Z,99.90
2019-03-27T08:26:19.773Z,99.90
2019-03-27T08:28:50.497Z,99.90
2019-03-27T08:31:21.314Z,99.90
2019-03-27T08:33:52.063Z,99.10
2019-03-27T08:36:22.843Z,99.50
2019-03-27T08:38:53.594Z,99.40
2019-03-27T08:41:24.271Z,98.30
2019-03-27T08:43:54.917Z,99.10
2019-03-27T08:46:25.602Z,97.60
2019-03-27T08:48:56.263Z,98.40
2019-03-27T08:51:26.986Z,98.70
2019-03-27T08:53:57.857Z,97.30
2019-03-27T08:56:28.610Z,95.50
2019-03-27T08:58:59.460Z,95.50
2019-03-27T09:01:30.357Z,96.30
2019-03-27T09:04:01.137Z,95.30
2019-03-27T09:06:34.115Z,94.40
2019-03-27T09:09:06.699Z,93.60
2019-03-27T09:11:37.592Z,93.50
2019-03-27T09:14:08.310Z,92.40
2019-03-27T09:16:39.121Z,90.80
2019-03-27T09:19:09.893Z,92.00
2019-03-27T09:21:40.614Z,89.30
2019-03-27T09:24:11.461Z,90.40
2019-03-27T09:26:42.298Z,88.40
2019-03-27T09:29:12.880Z,86.90
2019-03-27T09:31:45.166Z,84.20
2019-03-27T09:34:17.690Z,83.30
2019-03-27T09:36:48.507Z,90.00
2019-03-27T09:39:19.335Z,82.50
2019-03-27T09:41:50.046Z,80.70
2019-03-27T09:44:20.953Z,74.50
2019-03-27T09:46:51.732Z,70.50
2019-03-27T09:49:22.583Z,69.80
2019-03-27T09:51:53.369Z,69.20
2019-03-27T09:54:24.054Z,63.90
2019-03-27T09:56:54.688Z,65.40
2019-03-27T09:59:25.358Z,66.70
2019-03-27T10:01:56.072Z,64.40
2019-03-27T10:04:26.911Z,61.60
2019-03-27T10:06:57.822Z,60.80
2019-03-27T10:09:28.587Z,61.00
2019-03-27T10:11:59.334Z,62.10
2019-03-27T10:14:30.173Z,59.90
2019-03-27T10:17:00.954Z,61.40
2019-03-27T10:19:31.668Z,60.20
2019-03-27T10:22:02.216Z,59.30
2019-03-27T10:24:33.031Z,60.10
2019-03-27T10:27:03.670Z,60.00
2019-03-27T10:29:34.482Z,60.70
2019-03-27T10:32:05.351Z,59.80
2019-03-27T10:34:36.098Z,58.90
2019-03-27T10:37:06.797Z,56.90
2019-03-27T10:39:37.437Z,56.90
2019-03-27T10:42:08.089Z,59.50
2019-03-27T10:44:38.777Z,56.70
2019-03-27T10:47:09.533Z,55.70
2019-03-27T10:49:40.211Z,54.30
2019-03-27T10:52:10.972Z,54.70
2019-03-27T10:54:41.779Z,55.20
2019-03-27T10:57:12.610Z,55.50
2019-03-27T10:59:43.507Z,56.20
2019-03-27T11:02:14.189Z,53.30
2019-03-27T11:04:44.959Z,52.00
2019-03-27T11:07:15.759Z,52.60
2019-03-27T11:09:46.565Z,53.70
2019-03-27T11:12:17.300Z,53.80
2019-03-27T11:14:48.070Z,52.20
2019-03-27T11:17:18.960Z,53.20
2019-03-27T11:19:49.687Z,53.90
2019-03-27T11:22:20.482Z,53.90
2019-03-27T11:24:51.310Z,53.70
2019-03-27T11:27:22.128Z,52.20
2019-03-27T11:29:52.935Z,53.60
2019-03-27T11:32:23.676Z,54.00
2019-03-27T11:34:54.400Z,53.50
2019-03-27T11:37:25.189Z,53.00
2019-03-27T11:39:55.958Z,50.20
2019-03-27T11:42:28.016Z,48.80
2019-03-27T11:44:58.914Z,49.10
2019-03-27T11:47:29.295Z,49.60
2019-03-27T11:50:00.026Z,48.10
2019-03-27T11:52:30.716Z,47.30
2019-03-27T11:55:01.486Z,46.50
2019-03-27T11:57:32.210Z,46.60
2019-03-27T12:00:03.746Z,47.10
2019-03-27T12:02:34.814Z,46.70
2019-03-27T12:05:05.939Z,46.50
2019-03-27T12:07:36.776Z,45.70
2019-03-27T12:10:08.668Z,45.90
2019-03-27T12:12:39.369Z,43.80
2019-03-27T12:15:11.321Z,43.30
2019-03-27T12:17:42.174Z,43.60
2019-03-27T12:20:13.418Z,44.10
2019-03-27T12:22:56.947Z,44.00
2019-03-27T12:25:16.670Z,42.80
2019-03-27T12:27:47.434Z,42.80
2019-03-27T12:30:18.313Z,41.80
2019-03-27T12:32:49.057Z,41.60
2019-03-27T12:35:19.881Z,42.60
2019-03-27T12:37:50.611Z,41.60
2019-03-27T12:40:21.336Z,40.70
2019-03-27T12:42:52.141Z,41.50
2019-03-27T12:45:22.608Z,41.70
2019-03-27T12:47:53.238Z,41.40
2019-03-27T12:50:24.177Z,39.80
2019-03-27T12:52:55.001Z,39.90
2019-03-27T12:55:25.750Z,38.80
2019-03-27T12:57:56.450Z,39.40
2019-03-27T13:00:27.245Z,39.30
2019-03-27T13:02:58.173Z,37.40
2019-03-27T13:05:29.029Z,39.20
2019-03-27T13:08:00.014Z,37.50
2019-03-27T13:10:30.762Z,38.70
2019-03-27T13:13:01.517Z,37.40
2019-03-27T13:15:32.313Z,39.20
2019-03-27T13:18:03.067Z,38.20
2019-03-27T13:20:33.833Z,38.30
2019-03-27T13:23:05.126Z,36.90
2019-03-27T13:25:35.917Z,35.10
2019-03-27T13:28:06.751Z,35.60
2019-03-27T13:30:37.553Z,35.60
2019-03-27T13:33:08.165Z,34.90
2019-03-27T13:35:38.934Z,34.80
2019-03-27T13:38:09.719Z,34.10
2019-03-27T13:40:40.477Z,34.10
2019-03-27T13:43:11.269Z,34.80
2019-03-27T13:45:42.018Z,33.70
2019-03-27T13:48:12.782Z,34.70
2019-03-27T13:50:43.553Z,33.80
2019-03-27T13:53:14.249Z,33.80
2019-03-27T13:55:44.970Z,34.90
2019-03-27T13:58:15.781Z,33.80
2019-03-27T14:00:46.414Z,33.10
2019-03-27T14:03:17.111Z,33.40
2019-03-27T14:05:47.883Z,33.70
2019-03-27T14:08:18.639Z,32.40
2019-03-27T14:10:49.365Z,31.90
2019-03-27T14:13:20.051Z,32.40
2019-03-27T14:15:50.867Z,30.70
2019-03-27T14:18:21.719Z,32.00
2019-03-27T14:20:52.618Z,32.10
2019-03-27T14:23:23.338Z,31.80
2019-03-27T14:25:54.080Z,32.60
2019-03-27T14:28:24.910Z,33.30
2019-03-27T14:30:57.085Z,34.30
2019-03-27T14:33:27.819Z,33.70
2019-03-27T14:35:58.593Z,34.00
2019-03-27T14:38:29.399Z,32.20
2019-03-27T14:41:00.102Z,32.10
2019-03-27T14:43:30.899Z,32.50
2019-03-27T14:46:01.817Z,32.30
2019-03-27T14:48:32.623Z,32.60
2019-03-27T14:51:03.505Z,32.80
2019-03-27T14:53:34.346Z,33.70
2019-03-27T14:56:05.171Z,31.90
2019-03-27T14:58:36.073Z,33.30
2019-03-27T15:01:06.786Z,33.50
2019-03-27T15:03:37.519Z,31.70
2019-03-27T15:06:08.314Z,31.60
2019-03-27T15:08:38.998Z,32.10
2019-03-27T15:11:09.625Z,32.90
2019-03-27T15:13:40.426Z,32.10
2019-03-27T15:16:11.409Z,32.40
2019-03-27T15:18:42.148Z,33.30
2019-03-27T15:21:12.923Z,33.00
2019-03-27T15:23:44.667Z,33.10
2019-03-27T15:26:15.527Z,32.00
2019-03-27T15:28:51.090Z,32.80
2019-03-27T15:31:23.531Z,32.00
2019-03-27T15:33:55.731Z,31.90
2019-03-27T15:36:30.812Z,31.90
2019-03-27T15:39:04.641Z,32.50
2019-03-27T15:41:38.346Z,32.00
2019-03-27T15:44:09.119Z,32.20
2019-03-27T15:46:39.909Z,32.00
2019-03-27T15:49:10.750Z,32.50
2019-03-27T15:51:41.480Z,33.10
2019-03-27T15:54:12.374Z,32.40
2019-03-27T15:56:42.993Z,32.90
2019-03-27T15:59:13.842Z,33.60
2019-03-27T16:01:44.524Z,33.60
2019-03-27T16:04:15.331Z,33.80
2019-03-27T16:06:46.135Z,34.10
2019-03-27T16:09:17.796Z,34.10
2019-03-27T16:11:48.572Z,34.90
2019-03-27T16:14:19.352Z,34.60
2019-03-27T16:17:06.767Z,35.20
2019-03-27T16:19:22.562Z,34.60
2019-03-27T16:21:52.974Z,35.10
2019-03-27T16:24:23.777Z,35.50
2019-03-27T16:27:04.337Z,35.30
2019-03-27T16:29:27.087Z,35.60
2019-03-27T16:31:57.880Z,35.80
2019-03-27T16:34:28.594Z,36.10
2019-03-27T16:36:59.445Z,35.80
2019-03-27T16:39:30.151Z,36.50
2019-03-27T16:42:00.917Z,37.00
2019-03-27T16:44:31.599Z,36.60
2019-03-27T16:47:02.254Z,36.20
2019-03-27T16:49:32.875Z,36.30
2019-03-27T16:52:03.577Z,36.40
2019-03-27T16:54:34.247Z,37.10
2019-03-27T16:57:04.984Z,37.20
2019-03-27T16:59:35.762Z,37.60
2019-03-27T17:02:10.178Z,38.40
2019-03-27T17:04:40.977Z,38.80
2019-03-27T17:07:11.765Z,39.10
2019-03-27T17:09:42.538Z,40.10
2019-03-27T17:12:13.345Z,40.80
2019-03-27T17:14:44.120Z,41.50
2019-03-27T17:17:14.854Z,42.30
2019-03-27T17:19:45.646Z,42.50
2019-03-27T17:22:19.637Z,42.60
2019-03-27T17:24:48.886Z,43.00
2019-03-27T17:27:19.564Z,43.80
2019-03-27T17:29:50.255Z,44.20
2019-03-27T17:32:20.885Z,44.90
2019-03-27T17:34:52.071Z,45.70
2019-03-27T17:37:22.967Z,46.50
2019-03-27T17:39:53.682Z,48.60
2019-03-27T17:42:24.511Z,48.50
2019-03-27T17:44:55.309Z,49.90
2019-03-27T17:47:26.011Z,51.20
2019-03-27T17:49:57.058Z,52.00
2019-03-27T17:52:27.906Z,53.80
2019-03-27T17:54:58.710Z,54.90
2019-03-27T17:57:29.439Z,55.80
2019-03-27T18:00:00.099Z,57.00
2019-03-27T18:02:30.957Z,57.50
2019-03-27T18:05:04.686Z,58.00
2019-03-27T18:07:35.492Z,59.00
2019-03-27T18:10:06.442Z,59.60
2019-03-27T18:12:37.278Z,60.10
2019-03-27T18:15:08.544Z,61.20
2019-03-27T18:17:39.258Z,62.40
2019-03-27T18:20:10.305Z,63.70
2019-03-27T18:22:41.079Z,65.70
2019-03-27T18:25:15.175Z,66.60
2019-03-27T18:27:46.094Z,67.50
2019-03-27T18:30:17.127Z,69.10
2019-03-27T18:32:47.853Z,70.80
2019-03-27T18:35:18.656Z,71.60
2019-03-27T18:37:54.291Z,73.90
2019-03-27T18:40:26.230Z,74.50
2019-03-27T18:42:58.026Z,76.70
2019-03-27T18:45:28.808Z,77.90
2019-03-27T18:48:00.148Z,80.90
2019-03-27T18:50:31.769Z,82.90
2019-03-27T18:53:03.703Z,84.50
2019-03-27T18:55:35.467Z,86.20
2019-03-27T18:58:08.878Z,88.40
2019-03-27T19:00:40.223Z,89.90
2019-03-27T19:03:12.837Z,91.00
2019-03-27T19:05:45.409Z,91.60
2019-03-27T19:08:16.795Z,92.20
2019-03-27T19:10:48.781Z,92.80
2019-03-27T19:13:20.081Z,93.20
2019-03-27T19:15:51.610Z,93.40
2019-03-27T19:18:23.030Z,93.80
2019-03-27T19:20:55.475Z,93.90
2019-03-27T19:23:28.078Z,94.60
2019-03-27T19:25:59.013Z,94.80
2019-03-27T19:28:29.621Z,95.00
2019-03-27T19:31:00.257Z,95.10
2019-03-27T19:33:31.033Z,95.50
2019-03-27T19:36:01.741Z,95.90
2019-03-27T19:38:32.462Z,96.40
2019-03-27T19:41:03.169Z,97.40
2019-03-27T19:43:33.827Z,97.60
2019-03-27T19:46:04.543Z,97.10
2019-03-27T19:48:35.268Z,97.30
2019-03-27T19:51:06.083Z,96.90
2019-03-27T19:53:36.918Z,96.60
2019-03-27T19:56:07.747Z,97.00
2019-03-27T19:58:38.549Z,96.80
2019-03-27T20:01:09.790Z,97.10
2019-03-27T20:03:40.461Z,96.70
2019-03-27T20:06:11.358Z,97.00
2019-03-27T20:08:42.096Z,97.80
2019-03-27T20:11:12.783Z,97.40
2019-03-27T20:13:43.462Z,97.80
2019-03-27T20:16:14.132Z,99.00
2019-03-27T20:18:45.002Z,99.60
2019-03-27T20:21:15.805Z,99.90
2019-03-27T20:23:46.654Z,99.90
2019-03-27T20:26:17.461Z,99.90
2019-03-27T20:28:48.249Z,99.90
2019-03-27T20:31:18.963Z,99.90
2019-03-27T20:33:49.677Z,99.90
2019-03-27T20:36:20.570Z,99.90
2019-03-27T20:38:51.262Z,99.90
2019-03-27T20:41:22.050Z,99.90
2019-03-27T20:43:52.753Z,99.90
2019-03-27T20:46:25.397Z,99.90
2019-03-27T20:48:56.260Z,99.90
2019-03-27T20:51:27.011Z,99.90
2019-03-27T20:53:57.730Z,99.90
2019-03-27T20:56:28.440Z,99.90
2019-03-27T20:59:01.313Z,99.90
2019-03-27T21:01:31.633Z,99.90
2019-03-27T21:04:02.523Z,99.90
2019-03-27T21:06:33.241Z,99.90
2019-03-27T21:09:04.056Z,99.90
2019-03-27T21:11:34.974Z,99.90
2019-03-27T21:14:05.793Z,99.90
2019-03-27T21:16:36.716Z,99.90
2019-03-27T21:19:07.437Z,99.90
2019-03-27T21:21:38.163Z,99.90
2019-03-27T21:24:08.863Z,99.90
2019-03-27T21:26:39.673Z,99.90
2019-03-27T21:29:10.473Z,99.90
2019-03-27T21:31:41.257Z,99.90
2019-03-27T21:34:12.013Z,99.90
2019-03-27T21:36:42.770Z,99.90
2019-03-27T21:39:13.552Z,99.90
2019-03-27T21:41:44.396Z,99.90
2019-03-27T21:44:15.222Z,99.90
2019-03-27T21:46:46.121Z,99.90
2019-03-27T21:49:16.819Z,99.90
2019-03-27T21:51:47.570Z,99.90
2019-03-27T21:54:18.413Z,99.90
2019-03-27T21:56:49.121Z,99.90
2019-03-27T21:59:19.866Z,99.90
2019-03-27T22:01:50.647Z,99.90
2019-03-27T22:04:21.552Z,99.90
2019-03-27T22:06:52.273Z,99.90
2019-03-27T22:09:23.163Z,99.90
2019-03-27T22:11:54.086Z,99.90
2019-03-27T22:14:24.849Z,99.90
2019-03-27T22:16:55.716Z,99.90
2019-03-27T22:19:26.404Z,99.90
2019-03-27T22:21:57.183Z,99.90
2019-03-27T22:24:27.901Z,99.90
2019-03-27T22:26:58.542Z,99.90
2019-03-27T22:29:29.331Z,99.90
2019-03-27T22:32:00.078Z,99.90
2019-03-27T22:34:30.817Z,99.90
2019-03-27T22:37:01.514Z,99.90
2019-03-27T22:39:32.398Z,99.90
2019-03-27T22:42:03.101Z,99.90
2019-03-27T22:44:33.893Z,99.90
2019-03-27T22:47:04.693Z,99.90
2019-03-27T22:49:35.570Z,99.90
2019-03-27T22:52:06.289Z,99.90
2019-03-27T22:54:37.138Z,99.90
2019-03-27T22:57:07.973Z,99.90
2019-03-27T22:59:38.699Z,99.90
2019-03-27T23:02:09.680Z,99.90
2019-03-27T23:04:40.385Z,99.90
2019-03-27T23:07:11.019Z,99.90
2019-03-27T23:09:41.806Z,99.90
2019-03-27T23:12:12.614Z,99.90
2019-03-27T23:14:43.438Z,99.90
2019-03-27T23:17:14.328Z,99.90
2019-03-27T23:19:45.084Z,99.90
2019-03-27T23:22:15.818Z,99.90
2019-03-27T23:24:46.589Z,99.90
2019-03-27T23:27:17.384Z,99.90
2019-03-27T23:29:48.107Z,99.90
2019-03-27T23:32:18.875Z,99.90
2019-03-27T23:34:49.671Z,99.90
2019-03-27T23:37:20.559Z,99.90
2019-03-27T23:39:51.462Z,99.90
2019-03-27T23:42:22.241Z,99.90
2019-03-27T23:44:53.037Z,99.90
2019-03-27T23:47:23.841Z,99.90
2019-03-27T23:49:54.595Z,99.90
2019-03-27T23:52:25.203Z,99.90
2019-03-27T23:54:55.998Z,99.90
2019-03-27T23:57:26.785Z,99.90
2019-03-27T23:59:57.525Z,99.90
